Time;durP1;ratioP1;P1;durP2;ratioP2;P2;SDS_P1;SDS_P2;PMS_P1;PMS_P2;Temp;Humidity;BMP_temperature;BMP_pressure;BME280_temperature;BME280_humidity;BME280_pressure;Samples;Min_cycle;Max_cycle;Signal;HPM_P1;HPM_P2
2020/12/03 00:01:00;;;;;;;124.87;54.10;;;;;;;-4.98;100.00;99134.13;2090296;28;20582;-75
2020/12/03 00:02:02;;;;;;;134.07;55.33;;;;;;;-4.97;100.00;99127.13;2088925;28;20273;-75
2020/12/03 00:03:07;;;;;;;136.43;56.65;;;;;;;-4.94;100.00;99129.34;2089622;28;20286;-75
2020/12/03 00:04:09;;;;;;;136.63;56.22;;;;;;;-5.05;100.00;99122.09;2089108;28;20282;-76
2020/12/03 00:05:10;;;;;;;130.85;55.95;;;;;;;-5.06;100.00;99125.69;2089935;28;20230;-75
2020/12/03 00:06:15;;;;;;;130.70;54.63;;;;;;;-4.95;100.00;99127.72;2089254;28;20245;-74
2020/12/03 00:07:16;;;;;;;135.90;56.83;;;;;;;-5.00;100.00;99125.72;2089160;28;20218;-75
2020/12/03 00:08:17;;;;;;;134.13;56.83;;;;;;;-5.14;100.00;99117.03;2089339;28;20287;-75
2020/12/03 00:09:19;;;;;;;134.88;57.03;;;;;;;-5.15;100.00;99128.44;2089110;28;20264;-73
2020/12/03 00:10:20;;;;;;;136.75;58.28;;;;;;;-5.28;100.00;99119.78;2089803;28;20704;-75
2020/12/03 00:11:23;;;;;;;137.48;56.42;;;;;;;-5.26;100.00;99121.19;2089117;28;20301;-74
2020/12/03 00:12:24;;;;;;;135.75;56.70;;;;;;;-5.17;100.00;99114.03;2088464;28;20230;-75
2020/12/03 00:13:26;;;;;;;141.47;57.73;;;;;;;-5.19;100.00;99111.63;2089071;28;20230;-74
2020/12/03 00:14:27;;;;;;;142.13;59.38;;;;;;;-5.16;100.00;99113.84;2089007;28;20768;-75
2020/12/03 00:15:28;;;;;;;143.95;55.92;;;;;;;-5.16;100.00;99116.44;2088928;28;20562;-75
2020/12/03 00:16:32;;;;;;;138.88;57.50;;;;;;;-5.14;100.00;99121.44;2089052;28;20249;-75
2020/12/03 00:17:32;;;;;;;140.73;55.00;;;;;;;-5.16;100.00;99106.03;2080955;28;20243;-76
2020/12/03 00:18:36;;;;;;;142.07;56.77;;;;;;;-5.20;100.00;99101.44;2080696;28;20219;-75
2020/12/03 00:19:36;;;;;;;133.32;56.03;;;;;;;-5.09;100.00;99116.47;2088687;28;20309;-76
2020/12/03 00:20:38;;;;;;;130.10;55.47;;;;;;;-5.20;100.00;99102.22;2088850;28;20231;-75
2020/12/03 00:21:41;;;;;;;123.20;53.45;;;;;;;-5.30;100.00;99104.38;2089078;28;20278;-75
2020/12/03 00:22:43;;;;;;;133.90;56.53;;;;;;;-5.31;100.00;99094.16;2087616;28;20341;-75
2020/12/03 00:23:44;;;;;;;143.40;54.35;;;;;;;-5.35;100.00;99093.75;2080575;28;20276;-75
2020/12/03 00:24:45;;;;;;;131.67;56.33;;;;;;;-5.32;100.00;99102.97;2088889;28;20272;-75
2020/12/03 00:25:47;;;;;;;137.30;57.63;;;;;;;-5.38;100.00;99103.75;2088758;28;20234;-75
2020/12/03 00:26:48;;;;;;;145.88;55.75;;;;;;;-5.34;100.00;99108.34;2081064;28;20224;-75
2020/12/03 00:27:51;;;;;;;144.55;56.40;;;;;;;-5.33;100.00;99099.56;2088970;28;20344;-75
2020/12/03 00:28:52;;;;;;;132.48;55.47;;;;;;;-5.24;100.00;99108.00;2089158;28;20219;-75
2020/12/03 00:29:53;;;;;;;141.27;55.70;;;;;;;-5.25;100.00;99107.19;2088475;28;20253;-76
2020/12/03 00:30:54;;;;;;;128.93;53.40;;;;;;;-5.22;100.00;99101.59;2089795;28;20226;-76
2020/12/03 00:31:56;;;;;;;136.20;56.92;;;;;;;-5.33;100.00;99094.34;2088776;28;20234;-76
2020/12/03 00:32:57;;;;;;;143.05;54.67;;;;;;;-5.17;100.00;99101.03;2080709;28;20231;-76
2020/12/03 00:33:58;;;;;;;132.15;56.45;;;;;;;-5.17;100.00;99098.44;2088844;28;20646;-75
2020/12/03 00:35:00;;;;;;;138.47;57.70;;;;;;;-5.19;100.00;99100.44;2088858;28;20284;-75
2020/12/03 00:36:01;;;;;;;135.43;52.90;;;;;;;-5.15;100.00;99102.44;2089635;28;20309;-77
2020/12/03 00:37:02;;;;;;;147.10;56.00;;;;;;;-5.02;100.00;99103.50;2089542;28;20231;-74
2020/12/03 00:38:03;;;;;;;140.02;53.45;;;;;;;-4.99;100.00;99100.50;2088761;28;20272;-76
2020/12/03 00:39:05;;;;;;;143.17;56.93;;;;;;;-5.06;100.00;99095.28;2088827;28;20214;-74
2020/12/03 00:40:06;;;;;;;131.82;53.33;;;;;;;-5.11;100.00;99089.88;2089085;28;20967;-74
2020/12/03 00:41:08;;;;;;;138.02;56.95;;;;;;;-5.16;100.00;99074.84;2089365;28;20558;-75
2020/12/03 00:42:09;;;;;;;151.05;56.45;;;;;;;-5.06;100.00;99076.25;2089676;28;20298;-74
2020/12/03 00:43:10;;;;;;;135.70;55.43;;;;;;;-5.04;100.00;99082.06;2089723;28;20230;-74
2020/12/03 00:44:11;;;;;;;141.98;57.33;;;;;;;-5.08;100.00;99089.47;2088822;28;20743;-74
2020/12/03 00:45:14;;;;;;;144.00;55.93;;;;;;;-5.13;100.00;99084.84;2089246;28;20610;-74
2020/12/03 00:46:15;;;;;;;149.00;57.30;;;;;;;-5.28;100.00;99058.19;2088732;28;20226;-74
2020/12/03 00:47:18;;;;;;;137.60;56.45;;;;;;;-5.11;100.00;99076.88;2080249;28;20273;-74
2020/12/03 00:48:20;;;;;;;150.02;57.58;;;;;;;-5.18;100.00;99089.84;2080974;28;20231;-74
2020/12/03 00:49:22;;;;;;;140.57;55.70;;;;;;;-5.18;100.00;99087.22;2088458;28;20785;-74
2020/12/03 00:50:28;;;;;;;131.52;52.40;;;;;;;-5.10;100.00;99082.88;2081945;28;20270;-74
2020/12/03 00:51:29;;;;;;;139.95;54.63;;;;;;;-5.16;100.00;99077.44;2080674;28;20227;-74
2020/12/03 00:52:30;;;;;;;148.50;54.27;;;;;;;-5.04;100.00;99097.69;2089167;28;20681;-74
2020/12/03 00:53:32;;;;;;;127.32;50.53;;;;;;;-5.01;100.00;99092.91;2081236;28;20222;-74
2020/12/03 00:54:34;;;;;;;135.82;54.13;;;;;;;-5.06;100.00;99094.47;2080587;28;20219;-74
2020/12/03 00:55:35;;;;;;;149.20;56.55;;;;;;;-5.12;100.00;99089.06;2081149;28;20219;-74
2020/12/03 00:56:37;;;;;;;141.02;55.42;;;;;;;-5.10;100.00;99098.47;2080547;28;20278;-74
2020/12/03 00:57:38;;;;;;;149.65;59.33;;;;;;;-5.14;100.00;99082.44;2080092;28;20219;-74
2020/12/03 00:58:39;;;;;;;148.10;58.20;;;;;;;-5.25;100.00;99072.59;2080772;28;20741;-74
2020/12/03 00:59:40;;;;;;;148.02;56.53;;;;;;;-5.17;100.00;99067.22;2080457;28;20220;-73
2020/12/03 01:00:41;;;;;;;142.17;57.63;;;;;;;-5.14;100.00;99069.44;2088956;28;20313;-74
2020/12/03 01:01:44;;;;;;;149.73;57.30;;;;;;;-5.17;100.00;99075.03;2089595;28;20280;-74
2020/12/03 01:02:46;;;;;;;141.82;57.42;;;;;;;-5.09;100.00;99074.06;2088752;28;20223;-74
2020/12/03 01:03:48;;;;;;;159.07;55.95;;;;;;;-5.07;100.00;99075.47;2081236;28;20242;-74
2020/12/03 01:04:49;;;;;;;135.73;57.17;;;;;;;-5.16;100.00;99054.03;2080543;28;20329;-75
2020/12/03 01:05:51;;;;;;;143.18;57.13;;;;;;;-5.09;100.00;99074.88;2081054;28;20222;-74
2020/12/03 01:06:52;;;;;;;147.73;59.53;;;;;;;-5.20;100.00;99068.44;2080161;28;20239;-76
2020/12/03 01:07:53;;;;;;;150.65;59.05;;;;;;;-5.13;100.00;99069.22;2080368;28;20251;-75
2020/12/03 01:08:54;;;;;;;150.50;60.90;;;;;;;-5.09;100.00;99069.66;2089044;28;20222;-75
2020/12/03 01:09:55;;;;;;;140.73;56.78;;;;;;;-5.16;100.00;99048.03;2087681;28;20721;-75
2020/12/03 01:10:56;;;;;;;145.60;58.03;;;;;;;-5.07;100.00;99061.66;2088826;28;20590;-74
2020/12/03 01:11:57;;;;;;;147.73;57.72;;;;;;;-5.04;100.00;99059.47;2088711;28;20340;-74
2020/12/03 01:12:59;;;;;;;155.67;59.50;;;;;;;-5.07;100.00;99056.47;2088703;28;20231;-75
2020/12/03 01:13:59;;;;;;;157.27;60.15;;;;;;;-5.20;100.00;99039.81;2089870;28;20268;-75
2020/12/03 01:15:01;;;;;;;148.20;57.43;;;;;;;-5.18;100.00;99042.22;2088596;28;20223;-74
2020/12/03 01:16:01;;;;;;;156.75;59.80;;;;;;;-5.21;100.00;99055.63;2088726;28;20248;-75
2020/12/03 01:17:04;;;;;;;158.03;61.17;;;;;;;-5.17;100.00;99059.44;2088627;28;20771;-74
2020/12/03 01:18:06;;;;;;;154.88;58.70;;;;;;;-5.29;100.00;99048.00;2088717;28;20292;-74
2020/12/03 01:19:07;;;;;;;144.15;57.47;;;;;;;-5.28;100.00;99053.00;2088377;28;20230;-75
2020/12/03 01:20:10;;;;;;;146.35;59.70;;;;;;;-5.41;100.00;99055.50;2080228;28;20607;-75
2020/12/03 01:21:11;;;;;;;152.75;59.38;;;;;;;-5.47;100.00;99046.72;2080455;28;20223;-75
2020/12/03 01:22:12;;;;;;;164.02;59.58;;;;;;;-5.47;100.00;99051.91;2088734;28;20231;-75
2020/12/03 01:23:13;;;;;;;157.43;60.73;;;;;;;-5.44;100.00;99040.31;2089254;28;20268;-75
2020/12/03 01:24:14;;;;;;;171.30;60.08;;;;;;;-5.36;100.00;99047.94;2089188;28;20276;-75
2020/12/03 01:25:17;;;;;;;158.93;60.57;;;;;;;-5.29;100.00;99045.38;2088436;28;20223;-75
2020/12/03 01:26:19;;;;;;;161.57;62.10;;;;;;;-5.26;100.00;99058.00;2080568;28;20235;-74
2020/12/03 01:27:20;;;;;;;157.25;59.78;;;;;;;-5.31;100.00;99042.16;2088509;28;20222;-75
2020/12/03 01:28:21;;;;;;;152.20;58.67;;;;;;;-5.30;100.00;99047.19;2080278;28;20234;-74
2020/12/03 01:29:23;;;;;;;158.70;62.73;;;;;;;-5.28;100.00;99053.00;2079790;28;20285;-75
2020/12/03 01:30:24;;;;;;;159.80;60.28;;;;;;;-5.26;100.00;99052.78;2079987;28;20323;-74
2020/12/03 01:31:31;;;;;;;163.47;58.97;;;;;;;-5.24;100.00;99048.19;2088466;28;20230;-75
2020/12/03 01:32:31;;;;;;;152.68;58.00;;;;;;;-5.23;100.00;99048.00;2081043;28;20317;-75
2020/12/03 01:33:34;;;;;;;149.03;55.77;;;;;;;-5.27;100.00;99040.78;2088531;28;20222;-75
2020/12/03 01:34:35;;;;;;;155.00;61.35;;;;;;;-5.31;100.00;99040.34;2088307;28;20808;-74
2020/12/03 01:35:36;;;;;;;147.93;59.63;;;;;;;-5.42;100.00;99027.91;2088497;28;20292;-75
2020/12/03 01:36:37;;;;;;;153.13;59.10;;;;;;;-5.37;100.00;99024.75;2087934;28;20320;-76
2020/12/03 01:37:38;;;;;;;147.37;54.83;;;;;;;-5.28;100.00;99034.78;2088462;28;20288;-75
2020/12/03 01:38:39;;;;;;;149.07;56.35;;;;;;;-5.33;100.00;99018.16;2089149;28;20262;-75
2020/12/03 01:39:40;;;;;;;149.70;58.53;;;;;;;-5.40;100.00;99012.94;2089025;28;20226;-75
2020/12/03 01:40:41;;;;;;;154.73;59.42;;;;;;;-5.50;100.00;99000.28;2089118;28;20227;-74
2020/12/03 01:41:42;;;;;;;158.63;60.23;;;;;;;-5.53;100.00;99005.88;2089112;28;20280;-75
2020/12/03 01:42:43;;;;;;;156.90;61.10;;;;;;;-5.50;100.00;99010.69;2088563;28;20214;-75
2020/12/03 01:43:45;;;;;;;157.60;58.50;;;;;;;-5.64;100.00;98997.84;2079827;28;20262;-75
2020/12/03 01:44:48;;;;;;;159.25;59.17;;;;;;;-5.71;100.00;99003.81;2088525;28;20309;-74
2020/12/03 01:45:53;;;;;;;166.38;60.13;;;;;;;-5.81;100.00;98992.97;2088402;28;20222;-75
2020/12/03 01:46:54;;;;;;;147.20;59.40;;;;;;;-5.79;100.00;98995.38;2088602;28;20243;-74
2020/12/03 01:47:55;;;;;;;160.60;58.60;;;;;;;-5.67;100.00;98999.00;2089184;28;20226;-75
2020/12/03 01:49:02;;;;;;;172.43;62.60;;;;;;;-5.65;100.00;99001.41;2088985;28;20246;-75
2020/12/03 01:50:04;;;;;;;172.32;64.85;;;;;;;-5.73;100.00;99011.00;2088315;28;20226;-75
2020/12/03 01:51:08;;;;;;;160.52;60.50;;;;;;;-5.77;100.00;99006.38;2088384;28;20655;-74
2020/12/03 01:52:10;;;;;;;158.40;61.53;;;;;;;-5.76;100.00;99016.56;2088755;28;20227;-74
2020/12/03 01:53:13;;;;;;;156.13;61.60;;;;;;;-5.75;100.00;98989.59;2088150;28;20222;-74
2020/12/03 01:54:17;;;;;;;165.40;61.42;;;;;;;-5.77;100.00;98994.19;2088291;28;20223;-74
2020/12/03 01:55:17;;;;;;;159.32;63.60;;;;;;;-5.65;100.00;98999.63;2080361;28;20234;-74
2020/12/03 01:56:29;;;;;;;171.30;63.53;;;;;;;-5.63;100.00;98994.25;2080202;28;20247;-75
2020/12/03 01:57:52;;;;;;;157.63;59.17;;;;;;;-5.63;100.00;98989.84;2088283;28;20733;-74
2020/12/03 01:58:55;;;;;;;169.48;60.47;;;;;;;-5.66;100.00;98992.03;2082290;28;20219;-74
2020/12/03 02:00:05;;;;;;;171.60;59.75;;;;;;;-5.64;100.00;98992.66;2088318;28;20307;-76
2020/12/03 02:01:14;;;;;;;177.60;63.00;;;;;;;-5.81;100.00;98987.78;2081742;28;20230;-74
2020/12/03 02:02:17;;;;;;;198.63;67.90;;;;;;;-5.85;100.00;98994.31;2079939;28;20268;-74
2020/12/03 02:03:18;;;;;;;183.60;69.40;;;;;;;-5.90;100.00;98988.16;2080076;28;20223;-75
2020/12/03 02:04:20;;;;;;;184.32;69.18;;;;;;;-6.00;100.00;98980.69;2080777;28;20769;-74
2020/12/03 02:05:23;;;;;;;183.25;66.95;;;;;;;-6.04;100.00;98985.47;2079871;28;20265;-74
2020/12/03 02:06:26;;;;;;;184.40;64.53;;;;;;;-5.97;100.00;98992.50;2086541;28;20309;-74
2020/12/03 02:07:27;;;;;;;197.68;69.55;;;;;;;-6.02;100.00;98993.88;2088082;28;20231;-75
2020/12/03 02:08:28;;;;;;;191.95;68.78;;;;;;;-5.93;100.00;99001.50;2088311;28;20306;-73
2020/12/03 02:09:29;;;;;;;189.00;69.07;;;;;;;-5.91;100.00;99002.91;2088274;28;20227;-74
2020/12/03 02:10:30;;;;;;;209.70;72.93;;;;;;;-5.90;100.00;99009.72;2080290;28;20312;-74
2020/12/03 02:11:32;;;;;;;192.65;69.03;;;;;;;-5.91;100.00;98997.72;2088316;28;20231;-74
2020/12/03 02:12:33;;;;;;;199.68;72.00;;;;;;;-5.90;100.00;99001.13;2088900;28;20223;-74
2020/12/03 02:13:35;;;;;;;203.88;68.53;;;;;;;-5.99;100.00;98987.50;2088057;28;20302;-74
2020/12/03 02:14:36;;;;;;;198.15;66.18;;;;;;;-5.83;100.00;99000.13;2088225;28;20229;-74
2020/12/03 02:15:37;;;;;;;196.87;68.90;;;;;;;-5.87;100.00;98993.72;2087662;28;20257;-75
2020/12/03 02:16:39;;;;;;;194.00;68.45;;;;;;;-5.96;100.00;98989.72;2080216;28;20450;-74
2020/12/03 02:17:41;;;;;;;196.70;66.88;;;;;;;-6.04;100.00;98984.66;2088195;28;20231;-73
2020/12/03 02:18:43;;;;;;;198.65;70.88;;;;;;;-5.96;100.00;98992.31;2088889;28;20313;-74
2020/12/03 02:19:53;;;;;;;189.07;66.10;;;;;;;-6.01;100.00;98981.69;2088101;28;20704;-74
2020/12/03 02:20:53;;;;;;;189.60;67.80;;;;;;;-6.17;100.00;98977.59;2080454;28;20693;-73
2020/12/03 02:21:59;;;;;;;179.57;62.87;;;;;;;-6.02;100.00;98974.88;2079593;28;20653;-74
2020/12/03 02:23:00;;;;;;;189.30;63.70;;;;;;;-6.01;100.00;98976.47;2080529;28;20242;-74
2020/12/03 02:24:01;;;;;;;169.38;61.20;;;;;;;-6.21;100.00;98954.81;2088123;28;20226;-74
2020/12/03 02:25:03;;;;;;;178.43;64.18;;;;;;;-6.17;100.00;98969.00;2087897;28;20730;-75
2020/12/03 02:26:04;;;;;;;165.05;62.03;;;;;;;-6.23;100.00;98967.19;2088094;28;20261;-76
2020/12/03 02:27:06;;;;;;;184.52;64.07;;;;;;;-6.32;100.00;98956.94;2089022;28;20242;-76
2020/12/03 02:28:07;;;;;;;185.25;66.30;;;;;;;-6.27;100.00;98961.53;2088917;28;20693;-76
2020/12/03 02:29:08;;;;;;;175.77;63.58;;;;;;;-6.30;100.00;98952.34;2088010;28;20832;-75
2020/12/03 02:30:11;;;;;;;177.07;64.23;;;;;;;-6.19;100.00;98966.59;2088210;28;20749;-74
2020/12/03 02:31:13;;;;;;;179.02;66.10;;;;;;;-6.22;100.00;98954.00;2088954;28;20321;-75
2020/12/03 02:32:14;;;;;;;195.02;64.68;;;;;;;-6.10;100.00;98962.84;2088054;28;20234;-75
2020/12/03 02:33:15;;;;;;;185.50;68.35;;;;;;;-6.14;100.00;98956.44;2080373;28;20281;-74
2020/12/03 02:34:17;;;;;;;167.02;65.00;;;;;;;-6.08;100.00;98954.88;2088079;28;20313;-75
2020/12/03 02:35:19;;;;;;;176.82;60.88;;;;;;;-6.15;100.00;98948.84;2089206;28;20701;-74
2020/12/03 02:36:19;;;;;;;165.40;60.25;;;;;;;-6.00;100.00;98957.31;2088044;28;20222;-74
2020/12/03 02:37:21;;;;;;;163.63;61.40;;;;;;;-5.97;100.00;98954.34;2079904;28;20262;-73
2020/12/03 02:38:22;;;;;;;165.07;59.03;;;;;;;-5.94;100.00;98961.75;2087833;28;20231;-76
2020/12/03 02:39:25;;;;;;;172.63;59.33;;;;;;;-5.99;100.00;98961.53;2088181;28;20239;-74
2020/12/03 02:40:26;;;;;;;157.98;58.00;;;;;;;-6.07;100.00;98959.09;2089110;28;20453;-75
2020/12/03 02:41:27;;;;;;;170.87;61.03;;;;;;;-6.11;100.00;98955.25;2088719;28;20751;-74
2020/12/03 02:42:28;;;;;;;170.52;59.58;;;;;;;-6.28;100.00;98932.19;2088854;28;20226;-74
2020/12/03 02:43:29;;;;;;;161.87;59.77;;;;;;;-6.13;100.00;98942.47;2088936;28;20235;-74
2020/12/03 02:44:30;;;;;;;173.05;57.90;;;;;;;-6.10;100.00;98942.06;2087933;28;20280;-75
2020/12/03 02:45:31;;;;;;;170.93;59.90;;;;;;;-6.12;100.00;98940.69;2088133;28;20222;-75
2020/12/03 02:46:33;;;;;;;170.00;59.22;;;;;;;-6.15;100.00;98941.06;2089011;28;20737;-75
2020/12/03 02:47:34;;;;;;;167.02;62.17;;;;;;;-6.40;100.00;98912.97;2088405;28;20695;-76
2020/12/03 02:48:36;;;;;;;157.48;61.33;;;;;;;-6.29;100.00;98930.59;2089012;28;20228;-75
2020/12/03 02:49:41;;;;;;;160.90;60.93;;;;;;;-6.27;100.00;98941.56;2087547;28;20229;-76
2020/12/03 02:50:43;;;;;;;154.27;58.55;;;;;;;-6.43;100.00;98931.50;2080571;28;20636;-75
2020/12/03 02:51:44;;;;;;;163.50;59.75;;;;;;;-6.45;100.00;98927.50;2079939;28;20215;-75
2020/12/03 02:52:45;;;;;;;156.15;60.67;;;;;;;-6.41;100.00;98924.34;2088010;28;20218;-75
2020/12/03 02:53:46;;;;;;;159.20;57.55;;;;;;;-6.22;100.00;98932.44;2088653;28;20737;-75
2020/12/03 02:54:48;;;;;;;158.07;61.80;;;;;;;-6.21;100.00;98921.06;2088766;28;20578;-75
2020/12/03 02:55:49;;;;;;;164.48;60.22;;;;;;;-6.27;100.00;98926.00;2088778;28;20230;-75
2020/12/03 02:56:50;;;;;;;182.80;64.00;;;;;;;-6.36;100.00;98926.34;2088706;28;20222;-76
2020/12/03 02:57:51;;;;;;;164.73;61.35;;;;;;;-6.35;100.00;98939.13;2087974;28;20279;-75
2020/12/03 02:58:52;;;;;;;171.25;62.63;;;;;;;-6.34;100.00;98943.34;2087661;28;20717;-74
2020/12/03 02:59:54;;;;;;;161.20;61.00;;;;;;;-6.33;100.00;98950.16;2087853;28;20670;-76
2020/12/03 03:00:54;;;;;;;166.05;60.28;;;;;;;-6.34;100.00;98953.75;2079625;28;20220;-76
2020/12/03 03:01:56;;;;;;;169.60;63.10;;;;;;;-6.34;100.00;98945.13;2088176;28;20227;-76
2020/12/03 03:02:56;;;;;;;163.40;61.10;;;;;;;-6.39;100.00;98947.50;2087827;28;20689;-76
2020/12/03 03:03:58;;;;;;;172.77;62.50;;;;;;;-6.50;100.00;98935.84;2087952;28;20656;-75
2020/12/03 03:05:00;;;;;;;171.82;64.35;;;;;;;-6.71;100.00;98907.34;2088470;28;20223;-76
2020/12/03 03:06:01;;;;;;;165.32;65.00;;;;;;;-6.69;100.00;98926.94;2088603;28;20364;-76
2020/12/03 03:07:03;;;;;;;166.88;63.92;;;;;;;-6.53;100.00;98941.41;2087649;28;20305;-76
2020/12/03 03:08:04;;;;;;;183.38;68.95;;;;;;;-6.47;100.00;98956.22;2087897;28;20788;-75
2020/12/03 03:09:06;;;;;;;179.37;65.37;;;;;;;-6.53;100.00;98964.75;2088544;28;20627;-75
2020/12/03 03:10:07;;;;;;;175.70;67.47;;;;;;;-6.52;100.00;98968.94;2088158;28;20246;-76
2020/12/03 03:11:09;;;;;;;163.20;62.53;;;;;;;-6.51;100.00;98960.22;2088514;28;20227;-75
2020/12/03 03:12:10;;;;;;;161.55;61.45;;;;;;;-6.51;100.00;98964.59;2088515;28;20676;-75
2020/12/03 03:13:13;;;;;;;167.60;59.63;;;;;;;-6.37;100.00;98964.47;2088616;28;20227;-75
2020/12/03 03:14:14;;;;;;;158.23;57.97;;;;;;;-6.33;100.00;98970.91;2088599;28;20673;-75
2020/12/03 03:15:17;;;;;;;157.87;58.40;;;;;;;-6.36;100.00;98955.69;2088570;28;20632;-75
2020/12/03 03:16:17;;;;;;;150.68;56.15;;;;;;;-6.29;100.00;98966.13;2088050;28;20218;-75
2020/12/03 03:17:19;;;;;;;171.37;58.50;;;;;;;-6.21;100.00;98971.19;2087758;28;20310;-75
2020/12/03 03:18:21;;;;;;;160.30;61.13;;;;;;;-6.25;100.00;98962.19;2088011;28;20314;-75
2020/12/03 03:19:22;;;;;;;175.60;61.25;;;;;;;-6.22;100.00;98954.00;2079113;28;20234;-76
2020/12/03 03:20:23;;;;;;;156.70;57.45;;;;;;;-6.22;100.00;98955.78;2079520;28;20310;-76
2020/12/03 03:21:26;;;;;;;161.23;56.83;;;;;;;-6.24;100.00;98958.59;2079893;28;20238;-75
2020/12/03 03:22:26;;;;;;;169.20;62.10;;;;;;;-6.19;100.00;98970.97;2079898;28;20302;-77
2020/12/03 03:23:28;;;;;;;156.00;59.77;;;;;;;-6.20;100.00;98971.97;2079804;28;20224;-75
2020/12/03 03:24:29;;;;;;;152.63;58.40;;;;;;;-6.25;100.00;98967.38;2087787;28;20275;-75
2020/12/03 03:25:30;;;;;;;156.07;60.33;;;;;;;-6.26;100.00;98966.53;2087670;28;20304;-76
2020/12/03 03:26:31;;;;;;;156.00;60.55;;;;;;;-6.29;100.00;98959.16;2087877;28;20222;-75
2020/12/03 03:27:32;;;;;;;149.43;57.87;;;;;;;-6.37;100.00;98963.69;2087819;28;20225;-75
2020/12/03 03:28:33;;;;;;;155.82;58.80;;;;;;;-6.46;100.00;98960.41;2087728;28;20724;-74
2020/12/03 03:29:34;;;;;;;176.30;59.17;;;;;;;-6.41;100.00;98975.44;2087776;28;20602;-75
2020/12/03 03:30:35;;;;;;;161.23;59.78;;;;;;;-6.53;100.00;98956.97;2088464;28;20238;-75
2020/12/03 03:31:36;;;;;;;160.97;59.70;;;;;;;-6.57;100.00;98945.38;2087956;28;20670;-74
2020/12/03 03:32:37;;;;;;;161.23;59.17;;;;;;;-6.44;100.00;98968.81;2072783;28;20318;-76
2020/12/03 03:33:38;;;;;;;156.50;59.53;;;;;;;-6.39;100.00;98976.06;2082582;28;20231;-75
2020/12/03 03:34:40;;;;;;;161.45;61.83;;;;;;;-6.39;100.00;98966.47;2072965;28;20342;-75
2020/12/03 03:35:40;;;;;;;161.70;62.38;;;;;;;-6.45;100.00;98967.22;2072568;28;20311;-75
2020/12/03 03:36:43;;;;;;;155.30;58.40;;;;;;;-6.48;100.00;98967.59;2072588;28;20219;-75
2020/12/03 03:37:44;;;;;;;165.35;62.60;;;;;;;-6.52;100.00;98968.16;2081064;28;20749;-75
2020/12/03 03:38:45;;;;;;;158.83;61.17;;;;;;;-6.51;100.00;98965.41;2081006;28;20558;-75
2020/12/03 03:39:46;;;;;;;162.25;59.47;;;;;;;-6.53;100.00;98959.56;2072860;28;20890;-74
2020/12/03 03:40:47;;;;;;;160.30;58.67;;;;;;;-6.58;100.00;98962.75;2081254;28;20219;-75
2020/12/03 03:41:48;;;;;;;154.20;59.38;;;;;;;-6.55;100.00;98964.94;2081039;28;20223;-75
2020/12/03 03:42:49;;;;;;;159.37;59.87;;;;;;;-6.58;100.00;98936.00;2081118;28;20225;-75
2020/12/03 03:43:50;;;;;;;161.73;61.60;;;;;;;-6.52;100.00;98953.38;2086604;28;20756;-75
2020/12/03 03:44:52;;;;;;;162.97;58.17;;;;;;;-6.55;100.00;98946.78;2089389;28;20638;-75
2020/12/03 03:45:52;;;;;;;154.23;57.78;;;;;;;-6.56;100.00;98937.41;2088872;28;20238;-75
2020/12/03 03:46:54;;;;;;;152.03;57.53;;;;;;;-6.60;100.00;98927.59;2089116;28;20226;-76
2020/12/03 03:47:54;;;;;;;135.98;55.30;;;;;;;-6.50;100.00;98933.25;2089989;28;20701;-75
2020/12/03 03:48:56;;;;;;;150.60;58.60;;;;;;;-6.67;100.00;98908.59;2089146;28;20641;-75
2020/12/03 03:49:57;;;;;;;150.32;58.15;;;;;;;-6.52;100.00;98926.63;2080993;28;20678;-75
2020/12/03 03:50:58;;;;;;;165.07;59.73;;;;;;;-6.57;100.00;98924.63;2081076;28;20605;-75
2020/12/03 03:52:00;;;;;;;158.15;57.60;;;;;;;-6.59;100.00;98916.22;2081003;28;20493;-75
2020/12/03 03:53:01;;;;;;;159.02;59.08;;;;;;;-6.57;100.00;98911.66;2089394;28;20218;-75
2020/12/03 03:54:02;;;;;;;163.68;58.63;;;;;;;-6.63;100.00;98912.41;2089185;28;20681;-75
2020/12/03 03:55:04;;;;;;;151.63;57.63;;;;;;;-6.65;100.00;98911.78;2089451;28;20555;-75
2020/12/03 03:56:05;;;;;;;137.60;55.03;;;;;;;-6.57;100.00;98919.44;2089897;28;20226;-75
2020/12/03 03:57:06;;;;;;;154.33;57.20;;;;;;;-6.61;100.00;98910.41;2089958;28;20218;-75
2020/12/03 03:58:08;;;;;;;146.18;55.15;;;;;;;-6.71;100.00;98881.41;2088540;28;20215;-77
2020/12/03 03:59:09;;;;;;;142.75;55.08;;;;;;;-6.42;100.00;98909.75;2089129;28;20222;-75
2020/12/03 04:00:10;;;;;;;148.73;56.65;;;;;;;-6.37;100.00;98903.97;2090024;28;20606;-75
2020/12/03 04:01:12;;;;;;;139.93;56.63;;;;;;;-6.45;100.00;98891.16;2090054;28;20249;-75
2020/12/03 04:02:12;;;;;;;144.95;58.50;;;;;;;-6.60;100.00;98884.31;2089182;28;20776;-75
2020/12/03 04:03:16;;;;;;;150.73;58.53;;;;;;;-6.55;100.00;98896.69;2089293;28;20579;-75
2020/12/03 04:04:17;;;;;;;150.55;59.10;;;;;;;-6.51;100.00;98897.94;2089902;28;20234;-75
2020/12/03 04:05:18;;;;;;;160.70;60.97;;;;;;;-6.58;100.00;98891.88;2089889;28;20242;-75
2020/12/03 04:06:19;;;;;;;156.02;62.25;;;;;;;-6.65;100.00;98880.66;2089915;28;20219;-75
2020/12/03 04:07:21;;;;;;;149.17;61.20;;;;;;;-6.63;100.00;98882.06;2089825;28;20250;-75
2020/12/03 04:08:24;;;;;;;159.30;64.43;;;;;;;-6.77;100.00;98869.22;2089528;28;20746;-77
2020/12/03 04:09:25;;;;;;;161.30;62.50;;;;;;;-6.82;100.00;98871.56;2089128;28;20265;-76
2020/12/03 04:10:26;;;;;;;159.30;63.55;;;;;;;-6.68;100.00;98892.22;2080772;28;20262;-75
2020/12/03 04:11:27;;;;;;;159.07;61.73;;;;;;;-6.78;100.00;98878.75;2080832;28;20231;-75
2020/12/03 04:12:28;;;;;;;158.65;61.58;;;;;;;-6.71;100.00;98894.38;2080971;28;20581;-73
2020/12/03 04:13:29;;;;;;;173.27;61.80;;;;;;;-6.74;100.00;98876.59;2089493;28;20225;-75
2020/12/03 04:14:30;;;;;;;176.40;62.45;;;;;;;-6.73;100.00;98884.19;2080721;28;20298;-75
2020/12/03 04:15:32;;;;;;;150.70;58.53;;;;;;;-6.73;100.00;98879.00;2089240;28;20229;-75
2020/12/03 04:16:32;;;;;;;163.52;60.65;;;;;;;-6.64;100.00;98892.63;2089870;28;20301;-75
2020/12/03 04:17:36;;;;;;;176.67;63.57;;;;;;;-6.64;100.00;98888.25;2089918;28;20230;-76
2020/12/03 04:18:37;;;;;;;159.02;60.88;;;;;;;-6.63;100.00;98884.66;2088564;28;20584;-76
2020/12/03 04:19:38;;;;;;;154.35;62.17;;;;;;;-6.66;100.00;98881.66;2089195;28;20249;-74
2020/12/03 04:20:39;;;;;;;149.02;59.25;;;;;;;-6.52;100.00;98887.72;2089319;28;20222;-74
2020/12/03 04:21:40;;;;;;;158.33;60.67;;;;;;;-6.59;100.00;98890.28;2081140;28;20261;-76
2020/12/03 04:22:43;;;;;;;152.88;59.63;;;;;;;-6.58;100.00;98882.31;2089007;28;20234;-74
2020/12/03 04:23:45;;;;;;;156.50;59.55;;;;;;;-6.54;100.00;98885.31;2089317;28;20214;-74
2020/12/03 04:24:46;;;;;;;154.18;61.10;;;;;;;-6.60;100.00;98865.34;2080897;28;20286;-74
2020/12/03 04:25:47;;;;;;;157.00;58.63;;;;;;;-6.52;100.00;98865.16;2089051;28;20214;-74
2020/12/03 04:26:48;;;;;;;159.52;62.13;;;;;;;-6.54;100.00;98861.97;2089053;28;20219;-74
2020/12/03 04:27:49;;;;;;;153.20;59.40;;;;;;;-6.62;100.00;98862.13;2089133;28;20226;-74
2020/12/03 04:28:50;;;;;;;149.07;59.50;;;;;;;-6.58;100.00;98871.13;2088970;28;20309;-74
2020/12/03 04:29:51;;;;;;;151.43;59.07;;;;;;;-6.55;100.00;98870.75;2089014;28;20707;-74
2020/12/03 04:30:53;;;;;;;156.68;59.80;;;;;;;-6.55;100.00;98860.38;2088563;28;20362;-75
2020/12/03 04:31:54;;;;;;;165.70;59.15;;;;;;;-6.45;100.00;98871.19;2088933;28;20219;-75
2020/12/03 04:32:55;;;;;;;160.57;61.15;;;;;;;-6.52;100.00;98854.78;2089011;28;20226;-74
2020/12/03 04:33:56;;;;;;;176.17;64.60;;;;;;;-6.60;100.00;98860.16;2089084;28;20272;-75
2020/12/03 04:34:57;;;;;;;168.65;62.72;;;;;;;-6.64;100.00;98866.69;2088952;28;20777;-74
2020/12/03 04:35:59;;;;;;;160.55;63.97;;;;;;;-6.73;100.00;98867.84;2088783;28;20639;-76
2020/12/03 04:37:00;;;;;;;166.40;61.47;;;;;;;-6.70;100.00;98868.25;2081017;28;20235;-76
2020/12/03 04:38:01;;;;;;;171.40;64.25;;;;;;;-6.67;100.00;98856.72;2088895;28;20226;-75